Time;durP1;ratioP1;P1;durP2;ratioP2;P2;SDS_P1;SDS_P2;PMS_P1;PMS_P2;Temp;Humidity;BMP_temperature;BMP_pressure;BME280_temperature;BME280_humidity;BME280_pressure;Samples;Min_cycle;Max_cycle;Signal;HPM_P1;HPM_P2
2023/11/17 00:01:28;;;;;;;4.97;2.40;;;6.10;99.90;;;;;;6284980;22;20377;-81
2023/11/17 00:03:58;;;;;;;5.72;2.70;;;8.10;99.90;;;;;;6286482;22;20010;-80
2023/11/17 00:06:36;;;;;;;4.72;2.67;;;8.10;99.90;;;;;;6280324;22;20011;-81
2023/11/17 00:09:12;;;;;;;5.65;2.97;;;7.80;99.90;;;;;;6315201;22;19999;-81
2023/11/17 00:11:41;;;;;;;4.93;2.47;;;7.10;99.90;;;;;;6312481;22;20030;-81
2023/11/17 00:14:09;;;;;;;5.03;2.97;;;7.80;99.90;;;;;;6313247;22;20005;-81
2023/11/17 00:16:36;;;;;;;5.63;3.15;;;9.50;99.90;;;;;;6285923;22;20012;-80
2023/11/17 00:19:07;;;;;;;7.22;2.83;;;8.00;99.90;;;;;;6313569;22;20027;-80
2023/11/17 00:21:47;;;;;;;6.68;3.40;;;8.00;99.90;;;;;;6312226;22;20441;-80
2023/11/17 00:24:29;;;;;;;6.85;3.80;;;5.80;99.90;;;;;;6218724;23;20474;-81
2023/11/17 00:27:17;;;;;;;7.35;3.75;;;7.90;99.90;;;;;;6276327;22;20007;-81
2023/11/17 00:30:13;;;;;;;5.38;3.08;;;8.10;99.90;;;;;;6261408;22;20061;-79
2023/11/17 00:33:10;;;;;;;9.63;3.90;;;8.10;99.90;;;;;;6304604;22;20311;-81
2023/11/17 02:57:55;;;;;;;9.98;5.10;;;7.60;99.90;;;;;;6317666;22;20006;-83
2023/11/17 03:12:01;;;;;;;10.30;5.20;;;7.70;99.90;;;;;;6210974;23;20219;-83
2023/11/17 03:21:40;;;;;;;12.70;4.80;;;7.80;99.90;;;;;;6105807;23;20109;-82
2023/11/17 03:25:18;;;;;;;8.23;4.30;;;5.70;99.90;;;;;;6066734;23;20059;-82
2023/11/17 03:35:07;;;;;;;8.43;4.80;;;7.60;99.90;;;;;;6105423;23;20009;-83
2023/11/17 03:37:38;;;;;;;13.65;6.20;;;7.60;99.90;;;;;;6113153;23;20018;-82
2023/11/17 03:40:07;;;;;;;;;;;7.90;99.90;;;;;;6162049;23;20012;-82
2023/11/17 03:42:34;;;;;;;10.85;4.88;;;;;;;;;;6263180;22;19909;-82
2023/11/17 03:45:07;;;;;;;12.57;5.35;;;7.60;99.90;;;;;;6315515;22;20034;-82
2023/11/17 03:47:39;;;;;;;9.00;5.30;;;7.90;99.90;;;;;;6290943;22;20096;-82
2023/11/17 03:50:13;;;;;;;9.13;5.00;;;7.60;99.90;;;;;;6290281;22;20015;-81
2023/11/17 03:52:41;;;;;;;12.00;6.25;;;7.60;99.90;;;;;;6316981;22;20006;-82
2023/11/17 03:55:11;;;;;;;9.93;5.72;;;7.50;99.90;;;;;;6324293;22;20003;-82
2023/11/17 03:57:39;;;;;;;10.93;6.05;;;6.20;99.90;;;;;;6280113;22;19991;-82
2023/11/17 04:00:12;;;;;;;11.85;5.07;;;7.60;99.90;;;;;;6332338;22;20000;-82
2023/11/17 04:02:40;;;;;;;8.05;4.72;;;7.30;99.90;;;;;;6281538;22;20024;-81
2023/11/17 05:15:29;;;;;;;15.25;8.30;;;7.60;99.90;;;;;;6309019;22;20057;-82
2023/11/17 05:17:56;;;;;;;17.38;9.38;;;5.80;99.90;;;;;;6297098;22;20060;-81
2023/11/17 05:20:23;;;;;;;13.43;8.93;;;7.50;99.90;;;;;;6322925;22;20070;-82
2023/11/17 05:22:52;;;;;;;16.92;9.60;;;7.90;99.90;;;;;;6294631;22;20021;-81
2023/11/17 05:25:19;;;;;;;14.95;9.20;;;7.70;99.90;;;;;;6292724;22;20056;-82
2023/11/17 05:27:49;;;;;;;16.73;9.38;;;7.70;99.90;;;;;;6290455;22;20003;-82
2023/11/17 05:30:18;;;;;;;19.17;9.43;;;7.60;99.90;;;;;;6315365;22;20000;-82
2023/11/17 05:32:46;;;;;;;15.85;9.77;;;7.60;99.90;;;;;;6263397;22;20388;-81
2023/11/17 05:35:16;;;;;;;16.00;8.93;;;9.20;99.90;;;;;;6291223;22;20003;-81
2023/11/17 05:37:43;;;;;;;19.38;9.82;;;7.70;99.90;;;;;;6316008;22;20006;-80
2023/11/17 05:40:10;;;;;;;17.88;10.13;;;10.20;99.90;;;;;;6288293;22;20007;-81
2023/11/17 05:42:39;;;;;;;18.98;9.70;;;7.70;99.90;;;;;;6315334;22;20013;-81
2023/11/17 05:45:07;;;;;;;18.13;10.13;;;7.30;99.90;;;;;;6314662;22;20025;-81
2023/11/17 05:47:34;;;;;;;21.50;10.55;;;7.50;99.90;;;;;;6289778;22;20056;-82
2023/11/17 05:50:03;;;;;;;18.50;9.68;;;5.70;99.90;;;;;;6316498;22;19995;-82
2023/11/17 05:52:29;;;;;;;21.00;10.40;;;7.50;99.90;;;;;;6315788;22;20003;-81
2023/11/17 05:54:55;;;;;;;19.35;10.63;;;7.80;99.90;;;;;;6312912;22;20082;-81
2023/11/17 05:57:22;;;;;;;21.10;10.98;;;9.50;99.90;;;;;;6292221;22;20015;-82
2023/11/17 05:59:53;;;;;;;18.30;9.98;;;7.30;99.90;;;;;;6289309;22;19999;-81
2023/11/17 06:02:20;;;;;;;18.55;10.38;;;7.30;99.90;;;;;;6286845;22;20034;-81
2023/11/17 06:04:47;;;;;;;18.70;10.48;;;7.40;99.90;;;;;;6315569;22;19999;-81
2023/11/17 06:07:14;;;;;;;20.90;10.90;;;7.70;99.90;;;;;;6292687;22;20313;-81
2023/11/17 06:09:42;;;;;;;21.75;11.93;;;6.50;99.90;;;;;;6323229;22;20003;-82
2023/11/17 06:12:10;;;;;;;20.02;10.23;;;5.60;99.90;;;;;;6288375;22;20003;-81
2023/11/17 06:14:36;;;;;;;23.13;11.00;;;7.20;99.90;;;;;;6287837;22;20035;-82
2023/11/17 06:17:08;;;;;;;22.33;10.63;;;8.50;99.90;;;;;;6315178;22;20033;-81
2023/11/17 06:19:37;;;;;;;22.08;10.80;;;7.50;99.90;;;;;;6290276;22;20004;-81
2023/11/17 06:22:07;;;;;;;21.67;11.73;;;7.20;99.90;;;;;;6317955;22;20063;-81
2023/11/17 06:24:35;;;;;;;23.42;11.60;;;7.50;99.90;;;;;;6323255;22;20030;-82
2023/11/17 06:27:01;;;;;;;19.33;10.75;;;7.50;99.90;;;;;;6330588;22;20007;-81
2023/11/17 06:29:28;;;;;;;19.88;11.20;;;8.70;99.90;;;;;;6300313;22;20018;-81
2023/11/17 06:32:00;;;;;;;17.85;10.23;;;7.30;99.90;;;;;;6262255;22;20061;-82
2023/11/17 06:34:29;;;;;;;18.75;10.18;;;7.50;99.90;;;;;;6288440;22;20000;-81
2023/11/17 06:36:59;;;;;;;16.73;9.38;;;8.40;99.90;;;;;;6314923;22;20318;-80
2023/11/17 06:39:29;;;;;;;14.38;8.35;;;7.10;99.90;;;;;;6317008;22;20004;-81
2023/11/17 09:23:21;;;;;;;21.23;10.70;;;7.80;99.90;;;;;;6293491;22;20042;-81
2023/11/17 09:25:47;;;;;;;12.88;6.57;;;;;;;;;;6314103;22;20015;-81
2023/11/17 09:28:16;;;;;;;10.40;5.78;;;8.20;99.90;;;;;;6287095;22;20003;-80
2023/11/17 09:30:42;;;;;;;8.50;4.40;;;8.30;99.90;;;;;;6287046;22;20003;-81
2023/11/17 09:33:08;;;;;;;8.02;4.65;;;8.30;99.90;;;;;;6288120;22;20129;-81
2023/11/17 09:35:36;;;;;;;10.50;5.15;;;6.90;99.90;;;;;;6288163;22;20342;-82
2023/11/17 09:38:09;;;;;;;8.90;4.45;;;8.30;99.90;;;;;;6315218;22;20007;-80
2023/11/17 09:40:37;;;;;;;7.07;4.07;;;;;;;;;;6315717;22;20014;-82
2023/11/17 09:43:12;;;;;;;6.07;3.92;;;8.40;99.90;;;;;;6316066;22;19999;-82
2023/11/17 09:45:39;;;;;;;8.18;4.18;;;;;;;;;;6287869;22;20007;-82
2023/11/17 09:48:07;;;;;;;7.72;4.00;;;8.30;99.90;;;;;;6288690;22;20084;-82
2023/11/17 09:50:34;;;;;;;8.70;3.85;;;7.70;99.90;;;;;;6264276;22;20023;-82
2023/11/17 09:53:01;;;;;;;6.25;3.60;;;;;;;;;;6316611;22;19999;-82
2023/11/17 09:55:32;;;;;;;5.60;3.85;;;8.30;99.90;;;;;;6321486;22;20068;-82
2023/11/17 09:58:02;;;;;;;6.93;3.63;;;10.50;99.90;;;;;;6296529;22;20011;-82
2023/11/17 10:00:30;;;;;;;7.13;3.83;;;8.50;99.90;;;;;;6288655;22;20349;-81
2023/11/17 10:03:04;;;;;;;7.32;3.22;;;10.60;99.90;;;;;;6315756;22;20086;-81
2023/11/17 10:05:32;;;;;;;4.70;3.13;;;8.30;99.90;;;;;;6316220;22;20049;-82
2023/11/17 10:08:05;;;;;;;6.55;3.60;;;7.90;99.90;;;;;;6315052;22;20066;-81
2023/11/17 10:10:46;;;;;;;5.78;3.42;;;8.20;99.90;;;;;;6314454;22;20003;-81
2023/11/17 10:13:16;;;;;;;6.38;3.45;;;8.40;99.90;;;;;;6314236;22;20000;-80
2023/11/17 10:15:51;;;;;;;7.50;3.78;;;8.30;99.90;;;;;;6288783;22;20082;-82
2023/11/17 10:18:29;;;;;;;7.68;3.38;;;8.40;99.90;;;;;;6314089;22;20014;-81
2023/11/17 10:43:16;;;;;;;7.15;3.40;;;8.50;99.90;;;;;;6302170;22;20109;-83
2023/11/17 10:45:46;;;;;;;6.03;3.58;;;8.40;99.90;;;;;;6312883;22;20384;-81
2023/11/17 10:48:14;;;;;;;4.75;3.42;;;8.50;99.90;;;;;;6314574;22;20068;-79
2023/11/17 10:50:44;;;;;;;7.78;3.63;;;8.50;99.90;;;;;;6314223;22;20429;-81
2023/11/17 10:53:23;;;;;;;;;;;8.50;99.90;;;;;;6286229;22;20015;-81
2023/11/17 10:55:56;;;;;;;78.70;35.63;;;9.10;99.90;;;;;;6287802;22;19905;-82
2023/11/17 10:58:25;;;;;;;16.35;7.15;;;10.30;99.90;;;;;;6288976;22;20007;-81
2023/11/17 11:01:08;;;;;;;15.43;7.03;;;9.00;99.90;;;;;;6293142;22;20003;-82
2023/11/17 11:03:39;;;;;;;59.28;27.38;;;8.70;99.90;;;;;;6317213;22;20030;-82
2023/11/17 11:06:17;;;;;;;8.43;4.47;;;8.70;99.90;;;;;;6317853;22;20070;-81
2023/11/17 11:08:53;;;;;;;8.48;3.58;;;9.00;99.90;;;;;;6318207;22;20514;-82
2023/11/17 11:11:24;;;;;;;5.28;3.50;;;9.20;99.90;;;;;;6296136;22;20003;-80
2023/11/17 11:13:56;;;;;;;7.28;3.15;;;8.90;99.90;;;;;;6275986;22;19999;-82
2023/11/17 11:16:31;;;;;;;5.15;3.10;;;9.00;99.90;;;;;;6320433;22;20025;-81
2023/11/17 11:19:00;;;;;;;5.20;3.00;;;9.10;99.90;;;;;;6293180;22;20078;-82
2023/11/17 11:21:29;;;;;;;8.60;2.72;;;9.50;99.90;;;;;;6290617;22;20058;-81
2023/11/17 11:24:00;;;;;;;7.30;2.63;;;9.10;99.90;;;;;;6289837;22;20025;-81
2023/11/17 11:26:28;;;;;;;6.50;2.92;;;8.60;99.90;;;;;;6318654;22;20007;-81
2023/11/17 11:28:57;;;;;;;8.35;3.38;;;10.30;99.90;;;;;;6291817;22;20008;-80
2023/11/17 11:31:25;;;;;;;8.23;3.40;;;7.00;99.90;;;;;;6320445;22;20334;-81
2023/11/17 11:33:53;;;;;;;6.10;3.20;;;9.20;99.90;;;;;;6330059;22;19999;-82
2023/11/17 11:36:19;;;;;;;7.95;3.22;;;8.40;99.90;;;;;;6305932;22;20003;-82
2023/11/17 11:38:50;;;;;;;9.07;3.30;;;11.80;99.90;;;;;;6290033;22;20026;-81
2023/11/17 11:41:22;;;;;;;8.38;3.30;;;9.20;99.90;;;;;;6291324;22;20003;-81
2023/11/17 11:43:52;;;;;;;6.88;3.25;;;9.20;99.90;;;;;;6291799;22;20046;-81
2023/11/17 11:46:23;;;;;;;;;;;9.30;99.90;;;;;;6293560;22;19999;-80
2023/11/17 11:49:04;;;;;;;4.90;2.90;;;10.20;99.90;;;;;;6319485;22;19946;-80
2023/11/17 11:51:34;;;;;;;;;;;10.30;99.90;;;;;;6291210;22;20003;-81
2023/11/17 11:54:03;;;;;;;5.63;2.83;;;9.50;99.90;;;;;;6315654;22;19906;-81
2023/11/17 11:56:32;;;;;;;7.07;3.10;;;11.20;99.90;;;;;;6288432;22;19995;-81
2023/11/17 11:58:59;;;;;;;7.07;3.03;;;9.80;99.90;;;;;;6285756;22;20069;-82
2023/11/17 12:01:32;;;;;;;7.57;3.15;;;9.50;99.90;;;;;;6285559;22;20003;-81
2023/11/17 12:04:06;;;;;;;6.63;3.08;;;9.60;99.90;;;;;;6286580;22;20090;-82
2023/11/17 12:06:35;;;;;;;9.05;3.88;;;9.60;99.90;;;;;;6312752;22;20004;-81
2023/11/17 12:09:16;;;;;;;7.43;3.00;;;9.60;99.90;;;;;;6285669;22;20042;-81
2023/11/17 12:11:48;;;;;;;5.93;3.50;;;10.30;99.90;;;;;;6288967;22;20006;-82
2023/11/17 12:14:34;;;;;;;7.95;3.20;;;8.00;99.90;;;;;;6314559;22;20070;-81
2023/11/17 12:17:05;;;;;;;6.28;3.28;;;9.40;99.90;;;;;;6315186;22;20005;-81
2023/11/17 12:19:34;;;;;;;7.43;3.40;;;9.60;99.90;;;;;;6286925;22;20010;-81
2023/11/17 12:22:03;;;;;;;9.15;3.90;;;9.90;99.90;;;;;;6314702;22;20030;-81
2023/11/17 12:24:34;;;;;;;6.03;3.00;;;7.80;99.90;;;;;;6297322;22;19999;-80
2023/11/17 12:27:06;;;;;;;6.13;2.65;;;9.60;99.90;;;;;;6276069;22;20010;-82
2023/11/17 12:29:42;;;;;;;6.50;2.90;;;9.10;99.90;;;;;;6302333;22;20014;-80
2023/11/17 12:32:25;;;;;;;7.18;3.00;;;9.80;99.90;;;;;;6326707;22;20002;-80
2023/11/17 12:35:07;;;;;;;8.00;3.22;;;9.50;99.90;;;;;;6325391;22;20434;-81
2023/11/17 12:38:06;;;;;;;7.90;3.65;;;12.00;99.90;;;;;;6325881;22;20003;-80
2023/11/17 12:40:57;;;;;;;9.05;3.08;;;9.80;99.90;;;;;;6326891;22;19995;-81
2023/11/17 12:43:29;;;;;;;9.55;3.63;;;9.20;99.90;;;;;;6292598;22;20011;-81
2023/11/17 12:46:00;;;;;;;6.55;2.63;;;9.90;99.90;;;;;;6313092;22;20548;-83
2023/11/17 12:48:31;;;;;;;7.25;3.00;;;9.80;99.90;;;;;;6317645;22;20041;-81
2023/11/17 12:51:11;;;;;;;7.72;2.97;;;9.90;99.90;;;;;;6288471;22;19999;-80
2023/11/17 12:53:49;;;;;;;5.53;2.67;;;9.60;99.90;;;;;;6288272;22;20346;-81
2023/11/17 12:56:19;;;;;;;7.85;3.05;;;9.80;99.90;;;;;;6288444;22;20564;-81
2023/11/17 12:58:48;;;;;;;7.18;3.05;;;9.40;99.90;;;;;;6287744;22;20003;-81
2023/11/17 13:01:18;;;;;;;6.45;3.10;;;9.90;99.90;;;;;;6287943;22;20008;-80
2023/11/17 13:03:52;;;;;;;8.70;3.95;;;9.10;99.90;;;;;;6314202;22;20448;-81
2023/11/17 13:06:27;;;;;;;9.70;3.78;;;9.30;99.90;;;;;;6288159;22;20011;-81
2023/11/17 13:09:23;;;;;;;7.18;2.53;;;9.00;99.90;;;;;;6314018;22;20018;-81
2023/11/17 13:11:51;;;;;;;8.75;2.60;;;9.80;99.90;;;;;;6287573;22;20430;-81
2023/11/17 13:14:29;;;;;;;6.93;2.65;;;11.30;99.90;;;;;;6288482;22;20025;-81
2023/11/17 13:17:03;;;;;;;8.00;2.92;;;9.80;99.90;;;;;;6289616;22;20007;-81
2023/11/17 13:19:34;;;;;;;5.65;2.63;;;9.70;99.90;;;;;;6311595;22;20014;-80
2023/11/17 13:22:03;;;;;;;6.65;2.35;;;9.80;99.90;;;;;;6314399;22;20010;-80
2023/11/17 13:24:41;;;;;;;4.13;2.00;;;9.80;99.90;;;;;;6315694;22;20473;-81
2023/11/17 13:27:15;;;;;;;4.70;2.00;;;9.30;99.90;;;;;;6312439;22;20004;-81
2023/11/17 13:29:49;;;;;;;5.72;2.05;;;7.70;99.90;;;;;;6314109;22;20011;-81
2023/11/17 13:32:26;;;;;;;3.42;1.92;;;9.70;99.90;;;;;;6287361;22;20026;-81
2023/11/17 13:34:55;;;;;;;6.90;2.15;;;9.60;99.90;;;;;;6286854;22;20007;-81
2023/11/17 13:37:28;;;;;;;5.20;1.90;;;8.80;99.90;;;;;;6316485;22;20056;-80
2023/11/17 13:39:58;;;;;;;6.32;2.10;;;9.60;99.90;;;;;;6263257;22;20007;-81
2023/11/17 13:42:29;;;;;;;9.45;3.03;;;9.50;99.90;;;;;;6315978;22;20214;-80
2023/11/17 13:45:04;;;;;;;5.07;2.20;;;9.50;99.90;;;;;;6291949;22;20011;-81
2023/11/17 13:47:31;;;;;;;4.22;1.88;;;9.40;99.90;;;;;;6288831;22;20007;-79
2023/11/17 13:50:14;;;;;;;5.88;2.17;;;9.20;99.90;;;;;;6315276;22;20007;-81
2023/11/17 13:52:43;;;;;;;7.30;2.58;;;8.30;99.90;;;;;;6318323;22;20517;-81
2023/11/17 13:55:19;;;;;;;3.42;1.80;;;9.30;99.90;;;;;;6318400;22;20022;-81
2023/11/17 13:57:50;;;;;;;8.13;2.78;;;9.30;99.90;;;;;;6298557;22;20067;-82
2023/11/17 14:00:24;;;;;;;6.00;2.50;;;9.10;99.90;;;;;;6295206;22;19999;-82
2023/11/17 14:02:58;;;;;;;7.53;3.08;;;8.00;99.90;;;;;;6323901;22;19999;-82
2023/11/17 14:05:31;;;;;;;7.70;3.20;;;9.20;99.90;;;;;;6296913;22;20003;-82
2023/11/17 14:08:12;;;;;;;5.32;2.60;;;8.90;99.90;;;;;;6299747;22;20063;-82
2023/11/17 14:10:53;;;;;;;8.02;3.00;;;9.20;99.90;;;;;;6323015;22;20059;-83
2023/11/17 14:13:21;;;;;;;9.30;2.97;;;9.20;99.90;;;;;;6329448;22;19987;-85
2023/11/17 14:19:30;;;;;;;10.15;3.22;;;9.30;99.90;;;;;;6232076;23;20039;-82
2023/11/17 14:22:10;;;;;;;5.60;2.72;;;9.10;99.90;;;;;;6317957;22;20010;-81
2023/11/17 14:24:37;;;;;;;8.38;3.40;;;8.40;99.90;;;;;;6290678;22;20062;-81
2023/11/17 14:27:21;;;;;;;9.52;3.40;;;9.00;99.90;;;;;;6317025;22;20018;-81
2023/11/17 14:29:58;;;;;;;4.95;2.65;;;9.20;99.90;;;;;;6316865;22;20503;-82
2023/11/17 14:32:30;;;;;;;8.57;3.00;;;9.00;99.90;;;;;;6315722;22;20438;-81
2023/11/17 14:35:05;;;;;;;7.10;2.30;;;8.90;99.90;;;;;;6316704;22;20010;-81
2023/11/17 14:37:36;;;;;;;5.05;2.40;;;8.90;99.90;;;;;;6292231;22;20010;-81
2023/11/17 14:40:10;;;;;;;7.00;2.10;;;8.30;99.90;;;;;;6317004;22;20006;-81
2023/11/17 14:43:03;;;;;;;5.30;2.50;;;8.80;99.90;;;;;;6317972;22;20026;-82
2023/11/17 14:45:38;;;;;;;6.10;2.33;;;8.80;99.90;;;;;;6318158;22;20011;-81
2023/11/17 14:48:10;;;;;;;4.57;1.63;;;8.60;99.90;;;;;;6288480;22;20085;-80
2023/11/17 14:50:41;;;;;;;4.13;1.80;;;8.80;99.90;;;;;;6316561;22;19995;-80
2023/11/17 14:53:16;;;;;;;2.90;1.75;;;8.70;99.90;;;;;;6316305;22;20015;-80
2023/11/17 14:56:05;;;;;;;4.55;1.25;;;7.50;99.90;;;;;;6293470;22;20015;-81
2023/11/17 14:58:33;;;;;;;3.00;1.50;;;8.80;99.90;;;;;;6323174;22;20003;-81
2023/11/17 15:01:04;;;;;;;2.75;1.38;;;7.50;99.90;;;;;;6320091;22;20007;-81
2023/11/17 15:04:00;;;;;;;4.90;1.60;;;8.50;99.90;;;;;;6319018;22;20018;-81
2023/11/17 15:07:05;;;;;;;2.55;1.10;;;8.60;99.90;;;;;;6314375;22;20082;-82
2023/11/17 15:17:14;;;;;;;4.93;1.73;;;6.40;99.90;;;;;;6255171;23;20011;-81
2023/11/17 15:20:57;;;;;;;2.63;1.38;;;8.50;99.90;;;;;;6239598;23;20015;-80
2023/11/17 15:26:55;;;;;;;4.13;2.00;;;7.20;99.90;;;;;;6252580;23;20489;-81
2023/11/17 15:29:36;;;;;;;6.05;2.80;;;8.50;99.90;;;;;;6227685;23;20087;-82
2023/11/17 15:32:28;;;;;;;6.57;1.95;;;8.50;99.90;;;;;;6247363;23;20008;-81
2023/11/17 15:41:48;;;;;;;4.13;1.92;;;8.70;99.90;;;;;;6316224;22;20026;-81
2023/11/17 16:01:22;;;;;;;5.10;2.60;;;8.20;99.90;;;;;;6314145;22;20022;-81
2023/11/17 16:04:12;;;;;;;4.38;2.50;;;8.30;99.90;;;;;;6317224;22;20010;-81
2023/11/17 16:36:33;;;;;;;9.48;3.58;;;5.90;99.90;;;;;;6310690;22;20015;-82
2023/11/17 16:39:10;;;;;;;10.00;3.50;;;8.20;99.90;;;;;;6289070;22;20030;-81
2023/11/17 16:41:37;;;;;;;6.13;3.33;;;8.10;99.90;;;;;;6320786;22;20007;-81
2023/11/17 16:44:08;;;;;;;7.20;2.92;;;8.00;99.90;;;;;;6321889;22;20051;-82
2023/11/17 16:46:36;;;;;;;5.05;2.20;;;8.10;99.90;;;;;;6298597;22;20274;-81
2023/11/17 16:49:05;;;;;;;39.22;17.60;;;8.40;99.90;;;;;;6321151;22;20007;-81
2023/11/17 16:51:34;;;;;;;5.38;3.15;;;8.10;99.90;;;;;;6262616;22;20026;-80
2023/11/17 16:54:06;;;;;;;4.90;2.85;;;8.00;99.90;;;;;;6288242;22;20333;-80
2023/11/17 16:56:34;;;;;;;5.25;2.65;;;5.70;99.90;;;;;;6286518;22;20003;-81
2023/11/17 16:59:02;;;;;;;3.60;2.50;;;10.50;99.90;;;;;;6313794;22;20025;-81
2023/11/17 17:01:29;;;;;;;3.90;2.53;;;;;;;;;;6316999;22;20078;-81
2023/11/17 17:04:02;;;;;;;4.38;2.58;;;8.00;99.90;;;;;;6289988;22;20003;-81
2023/11/17 17:06:32;;;;;;;5.32;3.05;;;8.40;99.90;;;;;;6315343;22;20011;-81
2023/11/17 17:09:07;;;;;;;5.03;2.88;;;7.40;99.90;;;;;;6315005;22;20006;-81
2023/11/17 17:11:35;;;;;;;8.07;3.22;;;7.90;99.90;;;;;;6313983;22;19999;-81
2023/11/17 17:41:22;;;;;;;9.73;4.72;;;7.80;99.90;;;;;;6367006;22;20023;-85
2023/11/17 17:44:13;;;;;;;7.88;3.83;;;6.20;99.90;;;;;;6326696;22;20006;-86
2023/11/17 17:47:26;;;;;;;6.68;3.50;;;7.80;99.90;;;;;;6306810;22;20000;-84
2023/11/17 17:50:22;;;;;;;6.60;3.85;;;7.20;99.90;;;;;;6335990;22;20019;-86
